createdAt,value
2019-03-05T00:00:20.579Z,7.42
2019-03-05T00:01:20.746Z,7.29
2019-03-05T00:02:20.923Z,7.28
2019-03-05T00:03:21.101Z,7.24
2019-03-05T00:04:21.272Z,7.31
2019-03-05T00:05:21.438Z,7.32
2019-03-05T00:06:21.615Z,7.18
2019-03-05T00:07:21.791Z,7.28
2019-03-05T00:08:21.960Z,7.23
2019-03-05T00:09:22.137Z,7.18
2019-03-05T00:10:22.314Z,7.29
2019-03-05T00:11:22.490Z,7.31
2019-03-05T00:12:22.657Z,7.32
2019-03-05T00:13:22.830Z,7.39
2019-03-05T00:14:23.004Z,7.35
2019-03-05T00:15:23.173Z,7.39
2019-03-05T00:16:23.346Z,7.42
2019-03-05T00:17:23.522Z,7.33
2019-03-05T00:18:23.695Z,7.32
2019-03-05T00:19:23.867Z,7.36
2019-03-05T00:20:24.043Z,7.29
2019-03-05T00:21:24.226Z,7.28
2019-03-05T00:22:24.390Z,7.23
2019-03-05T00:23:24.562Z,7.31
2019-03-05T00:24:24.738Z,7.28
2019-03-05T00:25:24.922Z,7.32
2019-03-05T00:26:25.084Z,7.35
2019-03-05T00:27:25.258Z,7.31
2019-03-05T00:28:25.438Z,7.31
2019-03-05T00:29:25.601Z,7.31
2019-03-05T00:30:25.775Z,7.42
2019-03-05T00:31:25.948Z,7.39
2019-03-05T00:32:26.121Z,7.29
2019-03-05T00:33:26.300Z,7.39
2019-03-05T00:34:26.468Z,7.42
2019-03-05T00:35:26.631Z,7.50
2019-03-05T00:36:26.808Z,7.39
2019-03-05T00:37:26.984Z,7.29
2019-03-05T00:38:27.166Z,7.33
2019-03-05T00:39:27.331Z,7.31
2019-03-05T00:40:27.516Z,7.45
2019-03-05T00:41:27.690Z,7.43
2019-03-05T00:42:27.879Z,7.40
2019-03-05T00:43:28.041Z,7.45
2019-03-05T00:44:28.213Z,7.45
2019-03-05T00:45:28.367Z,7.43
2019-03-05T00:46:28.539Z,7.43
2019-03-05T00:47:28.713Z,7.38
2019-03-05T00:48:28.875Z,7.42
2019-03-05T00:49:29.059Z,7.40
2019-03-05T00:50:29.230Z,7.38
2019-03-05T00:51:29.409Z,7.38
2019-03-05T00:52:29.577Z,7.40
2019-03-05T00:53:29.758Z,7.43
2019-03-05T00:54:29.931Z,7.39
2019-03-05T00:55:30.110Z,7.40
2019-03-05T00:56:30.272Z,7.31
2019-03-05T00:57:30.451Z,7.39
2019-03-05T00:58:30.618Z,7.33
2019-03-05T00:59:30.792Z,7.36
2019-03-05T01:00:30.973Z,7.43
2019-03-05T01:01:31.139Z,7.33
2019-03-05T01:02:31.308Z,7.33
2019-03-05T01:03:31.493Z,7.36
2019-03-05T01:04:31.761Z,7.38
2019-03-05T01:06:31.997Z,7.40
2019-03-05T01:07:32.231Z,7.38
2019-03-05T01:08:32.346Z,7.39
2019-03-05T01:10:32.688Z,7.40
2019-03-05T01:11:32.861Z,7.51
2019-03-05T01:12:33.033Z,7.53
2019-03-05T01:13:33.210Z,7.53
2019-03-05T01:14:33.389Z,7.48
2019-03-05T01:16:33.724Z,7.53
2019-03-05T01:17:33.900Z,7.42
2019-03-05T01:18:34.074Z,7.47
2019-03-05T01:19:34.243Z,7.50
2019-03-05T01:20:34.417Z,7.53
2019-03-05T01:21:34.589Z,7.53
2019-03-05T01:22:34.772Z,7.48
2019-03-05T01:23:34.943Z,7.47
2019-03-05T01:24:35.107Z,7.51
2019-03-05T01:25:35.279Z,7.53
2019-03-05T01:26:35.452Z,7.50
2019-03-05T01:27:35.623Z,7.51
2019-03-05T01:28:35.795Z,7.50
2019-03-05T01:29:35.973Z,7.50
2019-03-05T01:30:36.146Z,7.51
2019-03-05T01:31:36.335Z,7.57
2019-03-05T01:32:36.485Z,7.50
2019-03-05T01:34:36.826Z,7.47
2019-03-05T01:35:36.998Z,7.42
2019-03-05T01:36:37.175Z,7.47
2019-03-05T01:37:37.337Z,7.48
2019-03-05T01:38:37.513Z,7.40
2019-03-05T01:39:37.681Z,7.54
2019-03-05T01:40:37.867Z,7.42
2019-03-05T01:41:38.025Z,7.56
2019-03-05T01:42:38.204Z,7.51
2019-03-05T01:43:38.367Z,7.48
2019-03-05T01:44:38.541Z,7.48
2019-03-05T01:45:38.710Z,7.50
2019-03-05T01:46:38.885Z,7.48
2019-03-05T01:47:39.059Z,7.53
2019-03-05T01:48:39.232Z,7.50
2019-03-05T01:49:39.402Z,7.67
2019-03-05T01:50:39.579Z,7.47
2019-03-05T01:51:39.753Z,7.50
2019-03-05T01:52:39.921Z,7.50
2019-03-05T01:53:40.096Z,7.57
2019-03-05T01:54:40.267Z,7.58
2019-03-05T01:55:40.447Z,7.54
2019-03-05T01:56:40.615Z,7.56
2019-03-05T01:57:40.786Z,7.51
2019-03-05T01:58:40.966Z,7.54
2019-03-05T01:59:41.142Z,7.50
2019-03-05T02:00:41.314Z,7.54
2019-03-05T02:01:41.490Z,7.54
2019-03-05T02:02:41.668Z,7.56
2019-03-05T02:03:41.828Z,7.54
2019-03-05T02:04:42.004Z,7.50
2019-03-05T02:05:42.181Z,7.45
2019-03-05T02:06:42.352Z,7.40
2019-03-05T02:07:42.528Z,7.45
2019-03-05T02:08:42.704Z,7.50
2019-03-05T02:09:42.877Z,7.54
2019-03-05T02:10:43.048Z,7.50
2019-03-05T02:11:43.219Z,7.57
2019-03-05T02:12:43.390Z,7.51
2019-03-05T02:13:43.565Z,7.53
2019-03-05T02:14:43.737Z,7.50
2019-03-05T02:15:43.906Z,7.42
2019-03-05T02:16:44.081Z,7.51
2019-03-05T02:17:44.246Z,7.54
2019-03-05T02:18:44.426Z,7.40
2019-03-05T02:19:44.592Z,7.42
2019-03-05T02:20:44.771Z,7.45
2019-03-05T02:21:44.943Z,7.43
2019-03-05T02:22:45.112Z,7.35
2019-03-05T02:23:45.296Z,7.38
2019-03-05T02:24:45.456Z,7.43
2019-03-05T02:25:45.625Z,7.38
2019-03-05T02:26:45.801Z,7.36
2019-03-05T02:27:45.976Z,7.43
2019-03-05T02:28:46.147Z,7.36
2019-03-05T02:29:46.325Z,7.31
2019-03-05T02:30:46.491Z,7.31
2019-03-05T02:31:46.669Z,7.31
2019-03-05T02:32:46.838Z,7.25
2019-03-05T02:33:47.006Z,7.23
2019-03-05T02:34:47.172Z,7.31
2019-03-05T02:35:47.348Z,7.33
2019-03-05T02:36:47.520Z,7.33
2019-03-05T02:37:47.694Z,7.35
2019-03-05T02:38:47.870Z,7.42
2019-03-05T02:39:48.041Z,7.38
2019-03-05T02:40:48.217Z,7.39
2019-03-05T02:41:48.387Z,7.47
2019-03-05T02:42:48.566Z,7.38
2019-03-05T02:43:48.726Z,7.38
2019-03-05T02:44:48.914Z,7.33
2019-03-05T02:45:49.070Z,7.48
2019-03-05T02:46:49.246Z,7.40
2019-03-05T02:47:49.411Z,7.47
2019-03-05T02:48:49.589Z,7.47
2019-03-05T02:49:49.776Z,7.56
2019-03-05T02:50:49.943Z,7.43
2019-03-05T02:51:50.211Z,7.50
2019-03-05T02:52:50.291Z,7.53
2019-03-05T02:53:50.460Z,7.48
2019-03-05T02:54:50.627Z,7.47
2019-03-05T02:55:50.798Z,7.40
2019-03-05T02:56:50.972Z,7.48
2019-03-05T02:57:51.152Z,7.40
2019-03-05T02:58:51.312Z,7.38
2019-03-05T02:59:51.486Z,7.43
2019-03-05T03:00:51.664Z,7.38
2019-03-05T03:01:51.832Z,7.42
2019-03-05T03:02:52.016Z,7.39
2019-03-05T03:03:52.183Z,7.43
2019-03-05T03:04:52.448Z,7.36
2019-03-05T03:05:52.527Z,7.42
2019-03-05T03:06:52.707Z,7.45
2019-03-05T03:07:52.872Z,7.42
2019-03-05T03:08:53.045Z,7.43
2019-03-05T03:09:53.229Z,7.45
2019-03-05T03:10:53.389Z,7.36
2019-03-05T03:11:53.566Z,7.29
2019-03-05T03:12:53.746Z,7.20
2019-03-05T03:13:53.913Z,7.18
2019-03-05T03:14:54.083Z,7.11
2019-03-05T03:15:54.256Z,7.18
2019-03-05T03:16:54.430Z,7.17
2019-03-05T03:17:54.607Z,7.02
2019-03-05T03:18:54.775Z,7.05
2019-03-05T03:19:54.954Z,7.03
2019-03-05T03:20:55.123Z,7.07
2019-03-05T03:21:55.303Z,7.07
2019-03-05T03:22:55.469Z,7.06
2019-03-05T03:23:55.645Z,6.99
2019-03-05T03:24:55.811Z,7.10
2019-03-05T03:25:55.987Z,6.96
2019-03-05T03:26:56.170Z,6.93
2019-03-05T03:27:56.351Z,6.81
2019-03-05T03:28:56.503Z,6.79
2019-03-05T03:29:56.677Z,6.74
2019-03-05T03:30:56.854Z,6.79
2019-03-05T03:31:57.033Z,6.72
2019-03-05T03:32:57.201Z,6.69
2019-03-05T03:33:57.373Z,6.64
2019-03-05T03:34:57.559Z,6.69
2019-03-05T03:35:57.729Z,6.64
2019-03-05T03:36:57.899Z,6.62
2019-03-05T03:37:58.061Z,6.63
2019-03-05T03:38:58.238Z,6.51
2019-03-05T03:39:58.410Z,6.60
2019-03-05T03:40:58.584Z,6.46
2019-03-05T03:41:58.769Z,6.52
2019-03-05T03:42:58.957Z,6.56
2019-03-05T03:43:59.114Z,6.45
2019-03-05T03:44:59.289Z,6.46
2019-03-05T03:45:59.468Z,6.36
2019-03-05T03:46:59.641Z,6.41
2019-03-05T03:47:59.802Z,6.44
2019-03-05T03:48:59.977Z,6.33
2019-03-05T03:50:00.507Z,6.35
2019-03-05T03:51:00.322Z,6.19
2019-03-05T03:52:00.504Z,6.19
2019-03-05T03:53:00.675Z,6.08
2019-03-05T03:54:00.840Z,6.08
2019-03-05T03:55:01.014Z,5.91
2019-03-05T03:56:01.237Z,5.87
2019-03-05T03:57:01.350Z,5.91
2019-03-05T03:58:01.533Z,5.90
2019-03-05T03:59:01.698Z,5.84
2019-03-05T04:00:01.869Z,5.79
2019-03-05T04:01:02.048Z,5.83
2019-03-05T04:02:02.218Z,5.97
2019-03-05T04:03:02.399Z,6.02
2019-03-05T04:04:02.574Z,5.99
2019-03-05T04:05:02.764Z,6.05
2019-03-05T04:06:02.919Z,5.99
2019-03-05T04:07:03.124Z,5.86
2019-03-05T04:08:03.822Z,5.80
2019-03-05T04:09:03.490Z,5.73
2019-03-05T04:10:03.661Z,5.72
2019-03-05T04:11:03.840Z,5.65
2019-03-05T04:12:03.981Z,5.72
2019-03-05T04:13:04.159Z,5.59
2019-03-05T04:14:04.348Z,5.66
2019-03-05T04:15:04.515Z,5.59
2019-03-05T04:16:04.694Z,5.65
2019-03-05T04:17:04.863Z,5.43
2019-03-05T04:18:05.032Z,5.44
2019-03-05T04:19:05.204Z,5.46
2019-03-05T04:20:05.379Z,5.47
2019-03-05T04:21:05.550Z,5.39
2019-03-05T04:22:05.727Z,5.46
2019-03-05T04:23:05.906Z,5.44
2019-03-05T04:24:06.077Z,5.39
2019-03-05T04:25:06.254Z,5.38
2019-03-05T04:26:06.421Z,5.30
2019-03-05T04:27:06.596Z,5.32
2019-03-05T04:28:06.763Z,5.48
2019-03-05T04:29:06.935Z,5.36
2019-03-05T04:30:07.116Z,5.48
2019-03-05T04:31:07.280Z,5.41
2019-03-05T04:32:07.456Z,5.41
2019-03-05T04:33:07.628Z,5.56
2019-03-05T04:34:07.803Z,5.59
2019-03-05T04:35:07.973Z,5.62
2019-03-05T04:36:08.151Z,5.61
2019-03-05T04:37:08.319Z,5.62
2019-03-05T04:38:08.503Z,5.68
2019-03-05T04:39:08.668Z,5.69
2019-03-05T04:40:08.838Z,5.65
2019-03-05T04:41:09.016Z,5.56
2019-03-05T04:42:09.183Z,5.56
2019-03-05T04:43:09.366Z,5.54
2019-03-05T04:44:09.531Z,5.56
2019-03-05T04:45:09.711Z,5.54
2019-03-05T04:46:09.875Z,5.53
2019-03-05T04:47:10.049Z,5.51
2019-03-05T04:48:10.215Z,5.56
2019-03-05T04:49:10.388Z,5.64
2019-03-05T04:50:10.567Z,5.43
2019-03-05T04:51:10.739Z,5.53
2019-03-05T04:52:10.907Z,5.54
2019-03-05T04:53:11.083Z,5.64
2019-03-05T04:54:11.253Z,5.62
2019-03-05T04:55:11.423Z,5.62
2019-03-05T04:56:11.593Z,5.69
2019-03-05T04:57:11.767Z,5.59
2019-03-05T04:58:11.941Z,5.75
2019-03-05T04:59:12.113Z,5.56
2019-03-05T05:00:12.286Z,5.62
2019-03-05T05:01:12.446Z,5.65
2019-03-05T05:02:12.620Z,5.51
2019-03-05T05:03:12.788Z,5.59
2019-03-05T05:04:12.968Z,5.54
2019-03-05T05:05:13.134Z,5.57
2019-03-05T05:06:13.313Z,5.54
2019-03-05T05:07:13.483Z,5.61
2019-03-05T05:08:13.653Z,5.65
2019-03-05T05:09:13.830Z,5.62
2019-03-05T05:10:14.001Z,5.62
2019-03-05T05:11:14.182Z,5.72
2019-03-05T05:12:14.344Z,5.68
2019-03-05T05:13:14.685Z,5.66
2019-03-05T05:14:14.774Z,5.75
2019-03-05T05:15:15.566Z,5.83
2019-03-05T05:16:15.014Z,5.75
2019-03-05T05:17:15.173Z,5.82
2019-03-05T05:18:15.351Z,5.80
2019-03-05T05:19:15.526Z,5.76
2019-03-05T05:20:15.705Z,5.89
2019-03-05T05:21:15.881Z,5.72
2019-03-05T05:22:16.051Z,5.69
2019-03-05T05:23:16.235Z,5.82
2019-03-05T05:24:16.397Z,5.69
2019-03-05T05:25:16.570Z,5.65
2019-03-05T05:26:17.809Z,5.76
2019-03-05T05:27:16.919Z,5.86
2019-03-05T05:28:17.092Z,5.89
2019-03-05T05:29:17.268Z,5.94
2019-03-05T05:30:17.436Z,5.93
2019-03-05T05:31:17.616Z,5.89
2019-03-05T05:32:17.787Z,5.93
2019-03-05T05:33:17.958Z,5.93
2019-03-05T05:34:18.153Z,5.93
2019-03-05T05:35:18.314Z,5.83
2019-03-05T05:36:18.492Z,5.93
2019-03-05T05:37:18.659Z,6.05
2019-03-05T05:38:18.840Z,6.12
2019-03-05T05:39:19.007Z,5.98
2019-03-05T05:40:19.177Z,5.93
2019-03-05T05:41:19.350Z,6.02
2019-03-05T05:42:19.532Z,6.09
2019-03-05T05:43:19.699Z,6.02
2019-03-05T05:44:19.874Z,6.04
2019-03-05T05:45:20.047Z,6.07
2019-03-05T05:46:20.218Z,5.97
2019-03-05T05:47:20.395Z,5.86
2019-03-05T05:48:20.565Z,5.87
2019-03-05T05:49:20.736Z,6.02
2019-03-05T05:50:20.914Z,6.01
2019-03-05T05:51:21.092Z,5.98
2019-03-05T05:52:21.266Z,6.04
2019-03-05T05:53:21.449Z,6.11
2019-03-05T05:54:21.603Z,6.09
2019-03-05T05:55:21.774Z,6.17
2019-03-05T05:56:21.962Z,6.12
2019-03-05T05:57:22.121Z,6.05
2019-03-05T05:58:22.296Z,6.05
2019-03-05T05:59:22.472Z,6.07
2019-03-05T06:00:22.642Z,6.04
2019-03-05T06:01:22.817Z,6.08
2019-03-05T06:02:22.989Z,5.97
2019-03-05T06:03:23.164Z,6.09
2019-03-05T06:04:23.337Z,6.11
2019-03-05T06:05:23.511Z,6.17
2019-03-05T06:06:23.681Z,6.12
2019-03-05T06:07:23.858Z,6.16
2019-03-05T06:08:24.026Z,6.19
2019-03-05T06:09:24.202Z,6.27
2019-03-05T06:10:24.374Z,6.24
2019-03-05T06:11:24.558Z,6.28
2019-03-05T06:12:24.716Z,6.26
2019-03-05T06:13:24.889Z,6.27
2019-03-05T06:14:25.063Z,6.27
2019-03-05T06:15:25.243Z,6.26
2019-03-05T06:16:25.427Z,6.27
2019-03-05T06:17:25.599Z,6.30
2019-03-05T06:18:25.776Z,6.44
2019-03-05T06:21:58.211Z,6.42
2019-03-05T06:22:58.386Z,6.54
2019-03-05T06:23:58.555Z,6.52
2019-03-05T06:24:58.735Z,6.35
2019-03-05T06:25:59.764Z,6.46
2019-03-05T06:26:59.050Z,6.52
2019-03-05T06:27:59.224Z,6.64
2019-03-05T06:28:59.399Z,6.81
2019-03-05T06:29:59.578Z,6.79
2019-03-05T06:30:59.749Z,6.81
2019-03-05T06:31:59.924Z,6.88
2019-03-05T06:33:00.094Z,6.97
2019-03-05T06:34:00.268Z,7.05
2019-03-05T06:35:00.436Z,7.10
2019-03-05T06:36:00.614Z,6.93
2019-03-05T06:37:00.783Z,6.99
2019-03-05T06:38:00.973Z,6.97
2019-03-05T06:39:01.146Z,6.95
2019-03-05T06:40:01.330Z,7.02
2019-03-05T06:41:01.493Z,6.96
2019-03-05T06:42:01.672Z,6.93
2019-03-05T06:43:01.850Z,6.87
2019-03-05T06:44:02.034Z,6.87
2019-03-05T06:45:02.193Z,6.87
2019-03-05T06:46:02.367Z,6.82
2019-03-05T06:47:02.551Z,6.66
2019-03-05T06:48:03.717Z,6.77
2019-03-05T06:49:02.882Z,6.82
2019-03-05T06:50:03.059Z,6.84
2019-03-05T06:51:03.232Z,6.89
2019-03-05T06:52:03.442Z,6.81
2019-03-05T06:53:03.588Z,6.87
2019-03-05T06:54:03.759Z,6.82
2019-03-05T06:55:03.933Z,6.93
2019-03-05T06:56:04.107Z,6.82
2019-03-05T06:57:04.281Z,6.84
2019-03-05T06:58:04.489Z,6.66
2019-03-05T06:59:04.664Z,6.57
2019-03-05T07:00:04.847Z,6.54
2019-03-05T07:01:05.025Z,6.54
2019-03-05T07:02:05.182Z,6.70
2019-03-05T07:03:05.367Z,6.63
2019-03-05T07:04:05.534Z,6.63
2019-03-05T07:05:05.707Z,6.62
2019-03-05T07:06:05.877Z,6.77
2019-03-05T07:07:06.049Z,6.70
2019-03-05T07:08:06.219Z,6.62
2019-03-05T07:09:06.394Z,6.79
2019-03-05T07:10:06.565Z,6.95
2019-03-05T07:11:06.738Z,7.10
2019-03-05T07:12:06.904Z,7.15
2019-03-05T07:13:07.083Z,7.18
2019-03-05T07:14:07.458Z,7.24
2019-03-05T07:15:07.552Z,7.23
2019-03-05T07:16:07.620Z,7.23
2019-03-05T07:17:07.754Z,7.06
2019-03-05T07:18:07.920Z,7.11
2019-03-05T07:19:08.122Z,7.23
2019-03-05T07:20:08.247Z,7.20
2019-03-05T07:21:08.427Z,7.25
2019-03-05T07:22:08.605Z,7.28
2019-03-05T07:23:08.778Z,7.33
2019-03-05T07:24:08.955Z,7.24
2019-03-05T07:25:09.130Z,6.95
2019-03-05T07:26:09.310Z,7.06
2019-03-05T07:27:09.477Z,7.18
2019-03-05T07:28:09.652Z,7.28
2019-03-05T07:29:09.834Z,7.35
2019-03-05T07:30:10.005Z,7.43
2019-03-05T07:31:10.176Z,7.48
2019-03-05T07:32:10.358Z,7.69
2019-03-05T07:33:10.523Z,7.61
2019-03-05T07:34:10.711Z,7.63
2019-03-05T07:35:10.890Z,7.63
2019-03-05T07:36:11.065Z,7.73
2019-03-05T07:37:11.233Z,7.63
2019-03-05T07:38:11.416Z,7.60
2019-03-05T07:39:11.590Z,7.72
2019-03-05T07:40:11.763Z,7.73
2019-03-05T07:41:11.935Z,7.73
2019-03-05T07:42:12.113Z,7.80
2019-03-05T07:43:12.286Z,7.69
2019-03-05T07:44:12.459Z,7.72
2019-03-05T07:45:12.643Z,7.57
2019-03-05T07:46:12.804Z,7.63
2019-03-05T07:47:12.979Z,7.77
2019-03-05T07:48:13.158Z,7.61
2019-03-05T07:49:13.326Z,7.69
2019-03-05T07:50:13.520Z,7.66
2019-03-05T07:51:13.687Z,7.79
2019-03-05T07:52:13.872Z,7.94
2019-03-05T07:53:14.041Z,8.12
2019-03-05T07:54:14.283Z,8.13
2019-03-05T07:55:14.443Z,8.20
2019-03-05T07:56:14.564Z,8.20
2019-03-05T07:57:14.707Z,8.24
2019-03-05T07:58:14.903Z,8.19
2019-03-05T07:59:15.037Z,8.15
2019-03-05T08:00:15.238Z,8.19
2019-03-05T08:01:22.218Z,8.19
2019-03-05T08:02:15.535Z,8.16
2019-03-05T08:03:15.710Z,8.15
2019-03-05T08:04:15.873Z,8.19
2019-03-05T08:05:16.071Z,8.20
2019-03-05T08:06:16.219Z,8.28
2019-03-05T08:07:16.396Z,8.36
2019-03-05T08:08:26.428Z,8.18
2019-03-05T08:09:16.747Z,8.03
2019-03-05T08:10:16.922Z,7.97
2019-03-05T08:11:17.117Z,8.09
2019-03-05T08:12:17.269Z,8.08
2019-03-05T08:13:17.454Z,8.06
2019-03-05T08:14:17.614Z,8.03
2019-03-05T08:15:17.772Z,8.08
2019-03-05T08:16:17.966Z,8.08
2019-03-05T08:17:18.110Z,8.10
2019-03-05T08:18:18.294Z,8.13
2019-03-05T08:19:18.443Z,8.12
2019-03-05T08:20:18.622Z,8.03
2019-03-05T08:21:18.786Z,8.09
2019-03-05T08:22:18.966Z,8.05
2019-03-05T08:23:19.126Z,8.06
2019-03-05T08:24:19.292Z,7.98
2019-03-05T08:25:19.459Z,7.95
2019-03-05T08:26:19.625Z,7.70
2019-03-05T08:27:19.781Z,7.80
2019-03-05T08:28:19.961Z,7.75
2019-03-05T08:29:20.142Z,7.83
2019-03-05T08:30:20.299Z,7.88
2019-03-05T08:31:20.467Z,7.93
2019-03-05T08:32:20.643Z,7.97
2019-03-05T08:33:20.806Z,8.03
2019-03-05T08:34:21.024Z,8.01
2019-03-05T08:35:21.189Z,7.76
2019-03-05T08:36:21.377Z,7.77
2019-03-05T08:37:21.511Z,7.75
2019-03-05T08:38:21.701Z,7.75
2019-03-05T08:39:21.863Z,7.79
2019-03-05T08:41:22.152Z,8.03
2019-03-05T08:42:22.333Z,8.08
2019-03-05T08:43:22.514Z,7.94
2019-03-05T08:44:22.687Z,7.91
2019-03-05T08:45:29.220Z,7.98
2019-03-05T08:46:23.017Z,7.91
2019-03-05T08:47:23.146Z,7.85
2019-03-05T08:48:23.345Z,7.97
2019-03-05T08:49:23.466Z,7.90
2019-03-05T08:50:23.664Z,7.95
2019-03-05T08:51:23.838Z,7.97
2019-03-05T08:52:24.035Z,7.94
2019-03-05T08:53:24.215Z,8.00
2019-03-05T08:54:24.370Z,7.97
2019-03-05T08:55:24.544Z,7.98
2019-03-05T08:56:24.734Z,7.90
2019-03-05T08:57:24.895Z,7.93
2019-03-05T08:58:25.038Z,7.94
2019-03-05T08:59:25.219Z,8.01
2019-03-05T09:00:25.384Z,7.97
2019-03-05T09:01:25.533Z,7.95
2019-03-05T09:02:25.693Z,7.90
2019-03-05T09:03:25.870Z,7.91
2019-03-05T09:04:26.017Z,7.94
2019-03-05T09:05:26.196Z,7.94
2019-03-05T09:06:26.356Z,8.00
2019-03-05T09:07:27.274Z,7.93
2019-03-05T09:08:26.724Z,8.01
2019-03-05T09:09:26.917Z,7.98
2019-03-05T09:10:27.059Z,7.91
2019-03-05T09:11:27.242Z,7.97
2019-03-05T09:12:27.424Z,7.95
2019-03-05T09:13:32.551Z,8.00
2019-03-05T09:14:27.717Z,8.06
2019-03-05T09:15:27.888Z,7.97
2019-03-05T09:16:28.044Z,7.75
2019-03-05T09:17:28.230Z,7.76
2019-03-05T09:18:28.411Z,7.73
2019-03-05T09:19:28.589Z,7.54
2019-03-05T09:20:28.751Z,7.45
2019-03-05T09:21:28.966Z,7.43
2019-03-05T09:22:29.094Z,7.31
2019-03-05T09:23:29.283Z,7.31
2019-03-05T09:24:29.429Z,7.33
2019-03-05T09:25:29.602Z,7.31
2019-03-05T09:26:29.753Z,7.18
2019-03-05T09:27:29.925Z,7.31
2019-03-05T09:28:30.063Z,7.29
2019-03-05T09:29:30.228Z,7.31
2019-03-05T09:30:30.392Z,7.31
2019-03-05T09:31:30.560Z,7.38
2019-03-05T09:32:30.725Z,7.40
2019-03-05T09:33:30.891Z,7.35
2019-03-05T09:34:31.072Z,7.18
2019-03-05T09:35:31.194Z,7.33
2019-03-05T09:36:31.359Z,7.23
2019-03-05T09:37:31.571Z,7.24
2019-03-05T09:38:31.678Z,7.23
2019-03-05T09:39:31.867Z,7.21
2019-03-05T09:40:32.009Z,7.23
2019-03-05T09:41:32.175Z,7.20
2019-03-05T09:42:39.764Z,7.31
2019-03-05T09:43:32.555Z,7.33
2019-03-05T09:44:32.621Z,7.25
2019-03-05T09:45:32.811Z,7.35
2019-03-05T09:46:32.953Z,7.31
2019-03-05T09:47:33.137Z,7.38
2019-03-05T09:48:33.294Z,7.43
2019-03-05T09:49:33.474Z,7.45
2019-03-05T09:50:33.657Z,7.33
2019-03-05T09:51:33.821Z,7.20
2019-03-05T09:52:33.988Z,7.18
2019-03-05T09:53:34.160Z,7.13
2019-03-05T09:54:34.336Z,7.05
2019-03-05T09:55:34.513Z,7.15
2019-03-05T09:56:34.686Z,7.06
2019-03-05T09:57:34.863Z,7.25
2019-03-05T09:58:35.026Z,7.05
2019-03-05T09:59:35.202Z,7.21
2019-03-05T10:00:35.376Z,7.33
2019-03-05T10:01:35.545Z,7.21
2019-03-05T10:02:35.723Z,7.29
2019-03-05T10:03:35.908Z,7.36
2019-03-05T10:04:36.068Z,7.43
2019-03-05T10:05:36.228Z,7.43
2019-03-05T10:06:36.400Z,7.50
2019-03-05T10:07:36.580Z,7.36
2019-03-05T10:08:36.755Z,7.40
2019-03-05T10:09:36.927Z,7.36
2019-03-05T10:10:37.116Z,7.53
2019-03-05T10:11:37.285Z,7.51
2019-03-05T10:12:37.463Z,7.51
2019-03-05T10:13:37.647Z,7.57
2019-03-05T10:14:37.818Z,7.61
2019-03-05T10:15:38.007Z,7.51
2019-03-05T10:16:38.167Z,7.53
2019-03-05T10:17:38.419Z,7.50
2019-03-05T10:18:39.374Z,7.53
2019-03-05T10:19:38.692Z,7.56
2019-03-05T10:20:38.856Z,7.54
2019-03-05T10:21:46.213Z,7.56
2019-03-05T10:22:39.222Z,7.60
2019-03-05T10:23:39.409Z,7.43
2019-03-05T10:24:39.579Z,7.51
2019-03-05T10:25:39.747Z,7.43
2019-03-05T10:26:39.904Z,7.50
2019-03-05T10:27:40.081Z,7.50
2019-03-05T10:28:40.256Z,7.48
2019-03-05T10:29:40.411Z,7.42
2019-03-05T10:30:40.589Z,7.47
2019-03-05T10:31:40.706Z,7.53
2019-03-05T10:32:40.884Z,7.51
2019-03-05T10:33:41.060Z,7.60
2019-03-05T10:34:41.229Z,7.67
2019-03-05T10:35:41.411Z,7.70
2019-03-05T10:36:41.568Z,7.70
2019-03-05T10:37:41.745Z,7.58
2019-03-05T10:38:41.939Z,7.69
2019-03-05T10:39:43.143Z,7.63
2019-03-05T10:40:43.240Z,7.60
2019-03-05T10:41:50.562Z,7.58
2019-03-05T10:42:43.297Z,7.58
2019-03-05T10:46:17.446Z,7.75
2019-03-05T10:47:17.191Z,7.76
2019-03-05T10:48:17.807Z,7.85
2019-03-05T10:49:18.168Z,7.69
2019-03-05T10:50:18.131Z,7.76
2019-03-05T10:51:32.160Z,7.76
2019-03-05T10:52:16.800Z,7.61
2019-03-05T10:53:16.972Z,7.69
2019-03-05T10:54:17.147Z,7.58
2019-03-05T10:55:25.933Z,7.69
2019-03-05T10:56:17.741Z,7.75
2019-03-05T10:57:18.910Z,7.76
2019-03-05T10:58:19.723Z,7.76
2019-03-05T10:59:19.058Z,7.87
2019-03-05T11:00:19.017Z,7.72
2019-03-05T11:01:22.220Z,7.70
2019-03-05T11:02:18.645Z,7.76
2019-03-05T11:03:18.817Z,7.76
2019-03-05T11:04:18.983Z,7.73
2019-03-05T11:05:19.145Z,7.67
2019-03-05T11:06:19.318Z,7.80
2019-03-05T11:07:19.485Z,7.76
2019-03-05T11:08:19.659Z,7.72
2019-03-05T11:09:19.829Z,7.73
2019-03-05T11:10:20.002Z,7.76
2019-03-05T11:11:20.149Z,7.77
2019-03-05T11:12:20.325Z,7.76
2019-03-05T11:13:20.537Z,7.80
2019-03-05T11:14:20.690Z,7.79
2019-03-05T11:15:20.839Z,7.73
2019-03-05T11:16:30.460Z,7.72
2019-03-05T11:17:21.283Z,7.79
2019-03-05T11:18:28.894Z,7.75
2019-03-05T11:19:21.536Z,7.70
2019-03-05T11:20:21.803Z,7.77
2019-03-05T11:21:22.051Z,7.88
2019-03-05T11:22:22.132Z,7.93
2019-03-05T11:23:22.386Z,7.95
2019-03-05T11:24:22.479Z,7.91
2019-03-05T11:25:22.713Z,7.90
2019-03-05T11:26:22.867Z,7.98
2019-03-05T11:27:23.060Z,7.73
2019-03-05T11:28:23.175Z,7.80
2019-03-05T11:29:23.359Z,7.90
2019-03-05T11:30:23.582Z,8.06
2019-03-05T11:31:23.791Z,8.12
2019-03-05T11:32:24.000Z,8.13
2019-03-05T11:33:24.087Z,8.28
2019-03-05T11:34:24.300Z,8.33
2019-03-05T11:35:24.440Z,8.51
2019-03-05T11:36:24.674Z,8.51
2019-03-05T11:37:24.743Z,8.46
2019-03-05T11:38:24.958Z,8.45
2019-03-05T11:39:25.090Z,8.37
2019-03-05T11:40:25.235Z,8.49
2019-03-05T11:41:25.377Z,8.56
2019-03-05T11:42:25.558Z,8.53
2019-03-05T11:43:25.745Z,8.63
2019-03-05T11:44:25.929Z,8.63
2019-03-05T11:45:26.107Z,8.63
2019-03-05T11:46:26.268Z,8.67
2019-03-05T11:47:26.437Z,8.69
2019-03-05T11:48:26.622Z,8.66
2019-03-05T11:49:26.806Z,8.63
2019-03-05T11:50:27.015Z,8.58
2019-03-05T11:51:27.121Z,8.63
2019-03-05T11:52:27.378Z,8.58
2019-03-05T11:53:27.548Z,8.71
2019-03-05T11:54:27.699Z,8.89
2019-03-05T11:55:27.965Z,8.92
2019-03-05T11:56:28.037Z,9.06
2019-03-05T11:57:28.280Z,9.13
2019-03-05T11:58:28.366Z,9.04
2019-03-05T11:59:28.560Z,9.23
2019-03-05T12:00:28.938Z,9.13
2019-03-05T12:01:28.974Z,9.25
2019-03-05T12:02:29.146Z,8.97
2019-03-05T12:03:30.025Z,8.92
2019-03-05T12:04:29.774Z,8.95
2019-03-05T12:05:29.918Z,9.06
2019-03-05T12:06:29.871Z,9.19
2019-03-05T12:07:30.782Z,9.32
2019-03-05T12:08:30.595Z,9.40
2019-03-05T12:09:30.373Z,9.31
2019-03-05T12:10:30.584Z,9.29
2019-03-05T12:11:31.011Z,9.40
2019-03-05T12:12:31.097Z,9.51
2019-03-05T12:13:31.052Z,9.55
2019-03-05T12:14:31.200Z,9.59
2019-03-05T12:15:31.369Z,9.64
2019-03-05T12:16:31.520Z,9.43
2019-03-05T12:17:31.691Z,9.39
2019-03-05T12:18:31.879Z,9.25
2019-03-05T12:19:32.043Z,9.14
2019-03-05T12:20:32.208Z,9.19
2019-03-05T12:21:32.392Z,9.21
2019-03-05T12:22:32.635Z,9.37
2019-03-05T12:23:32.751Z,9.40
2019-03-05T12:24:32.911Z,9.41
2019-03-05T12:25:36.105Z,9.41
2019-03-05T12:26:33.266Z,9.40
2019-03-05T12:27:35.839Z,9.48
2019-03-05T12:28:33.511Z,9.58
2019-03-05T12:29:33.675Z,9.54
2019-03-05T12:30:33.860Z,9.72
2019-03-05T12:31:34.072Z,9.46
2019-03-05T12:32:34.330Z,9.58
2019-03-05T12:33:34.399Z,9.46
2019-03-05T12:34:34.513Z,9.41
2019-03-05T12:35:35.561Z,9.50
2019-03-05T12:36:34.904Z,9.55
2019-03-05T12:37:35.105Z,9.62
2019-03-05T12:38:35.196Z,9.59
2019-03-05T12:39:35.359Z,9.54
2019-03-05T12:40:35.560Z,9.51
2019-03-05T12:41:35.689Z,9.44
2019-03-05T12:42:35.873Z,9.25
2019-03-05T12:43:36.060Z,9.32
2019-03-05T12:44:36.253Z,9.37
2019-03-05T12:45:36.387Z,9.37
2019-03-05T12:46:36.550Z,9.47
2019-03-05T12:47:36.799Z,9.39
2019-03-05T12:48:40.389Z,9.43
2019-03-05T12:49:37.078Z,9.37
2019-03-05T12:50:37.282Z,9.50
2019-03-05T12:51:37.522Z,9.82
2019-03-05T12:52:38.020Z,9.99
2019-03-05T12:53:37.719Z,10.05
2019-03-05T12:54:37.929Z,10.23
2019-03-05T12:55:38.243Z,10.37
2019-03-05T12:56:38.277Z,10.33
2019-03-05T12:57:38.430Z,10.35
2019-03-05T12:58:38.612Z,10.31
2019-03-05T12:59:38.814Z,10.48
2019-03-05T13:00:38.980Z,10.56
2019-03-05T13:01:39.263Z,10.64
2019-03-05T13:02:39.334Z,10.71
2019-03-05T13:03:39.514Z,10.69
2019-03-05T13:04:39.645Z,10.53
2019-03-05T13:05:41.757Z,10.33
2019-03-05T13:06:39.992Z,10.20
2019-03-05T13:07:40.488Z,10.10
2019-03-05T13:08:41.418Z,9.95
2019-03-05T13:09:40.592Z,9.87
2019-03-05T13:10:41.739Z,9.89
2019-03-05T13:11:41.026Z,9.79
2019-03-05T13:12:41.304Z,9.69
2019-03-05T13:13:42.389Z,9.79
2019-03-05T13:14:42.746Z,9.56
2019-03-05T13:15:41.662Z,9.46
2019-03-05T13:16:42.122Z,9.62
2019-03-05T13:17:47.162Z,9.68
2019-03-05T13:18:42.321Z,9.74
2019-03-05T13:19:44.383Z,9.89
2019-03-05T13:20:43.190Z,9.98
2019-03-05T13:21:44.250Z,10.09
2019-03-05T13:22:42.962Z,9.97
2019-03-05T13:23:43.128Z,9.99
2019-03-05T13:24:46.849Z,9.95
2019-03-05T13:25:43.489Z,10.07
2019-03-05T13:26:45.100Z,10.22
2019-03-05T13:27:43.811Z,10.26
2019-03-05T13:28:43.958Z,10.15
2019-03-05T13:29:44.108Z,10.20